createdAt,value
2023-03-16T00:02:10.475Z,99237.15
2023-03-16T00:04:40.065Z,99226.38
2023-03-16T00:07:08.305Z,99217.98
2023-03-16T00:09:36.621Z,99209.25
2023-03-16T00:12:08.493Z,99207.02
2023-03-16T00:14:35.855Z,99204.02
2023-03-16T00:17:06.578Z,99200.85
2023-03-16T00:19:37.147Z,99206.27
2023-03-16T00:22:04.949Z,99203.21
2023-03-16T00:24:32.248Z,99200.68
2023-03-16T00:26:59.635Z,99196.56
2023-03-16T00:29:26.893Z,99199.75
2023-03-16T00:31:57.922Z,99200.68
2023-03-16T00:34:25.185Z,99200.15
2023-03-16T00:36:52.661Z,99202.16
2023-03-16T00:39:20.990Z,99205.08
2023-03-16T00:41:48.662Z,99208.19
2023-03-16T00:44:22.685Z,99202.88
2023-03-16T00:46:49.924Z,99202.05
2023-03-16T00:49:17.325Z,99197.38
2023-03-16T00:51:47.028Z,99195.48
2023-03-16T00:54:14.775Z,99199.63
2023-03-16T00:56:43.223Z,99199.41
2023-03-16T00:59:13.083Z,99200.00
2023-03-16T01:01:40.273Z,99198.41
2023-03-16T01:04:07.815Z,99199.20
2023-03-16T01:06:35.549Z,99197.83
2023-03-16T01:09:05.832Z,99193.81
2023-03-16T01:11:34.148Z,99202.74
2023-03-16T01:14:01.514Z,99200.20
2023-03-16T01:16:28.990Z,99204.86
2023-03-16T01:18:58.376Z,99208.98
2023-03-16T01:21:25.518Z,99199.46
2023-03-16T01:23:54.200Z,99199.99
2023-03-16T01:26:23.207Z,99199.68
2023-03-16T01:28:50.463Z,99209.52
2023-03-16T01:31:17.902Z,99206.77
2023-03-16T01:33:45.247Z,99203.86
2023-03-16T01:43:58.706Z,99205.91
2023-03-16T01:46:32.925Z,99201.42
2023-03-16T01:49:15.530Z,99201.33
2023-03-16T01:52:00.126Z,99201.32
2023-03-16T01:54:34.556Z,99194.03
2023-03-16T01:57:37.207Z,99188.95
2023-03-16T02:00:14.311Z,99193.67
2023-03-16T02:02:51.646Z,99193.40
2023-03-16T02:05:33.388Z,99200.52
2023-03-16T02:08:01.498Z,99208.20
2023-03-16T02:18:11.167Z,99212.10
2023-03-16T02:21:01.418Z,99217.11
2023-03-16T02:23:29.134Z,99221.30
2023-03-16T02:26:00.116Z,99217.14
2023-03-16T02:29:01.998Z,99217.12
2023-03-16T02:31:34.420Z,99221.19
2023-03-16T02:34:02.218Z,99225.45
2023-03-16T02:36:29.883Z,99219.95
2023-03-16T02:38:57.268Z,99220.98
2023-03-16T02:41:25.119Z,99226.59
2023-03-16T02:43:59.645Z,99221.10
2023-03-16T02:46:36.079Z,99215.00
2023-03-16T02:49:08.703Z,99213.10
2023-03-16T02:51:38.611Z,99211.91
2023-03-16T02:54:06.133Z,99216.33
2023-03-16T02:56:37.345Z,99213.69
2023-03-16T02:59:04.578Z,99209.55
2023-03-16T03:01:35.586Z,99199.16
2023-03-16T03:04:04.219Z,99197.56
2023-03-16T03:06:32.630Z,99196.84
2023-03-16T03:09:02.234Z,99196.31
2023-03-16T03:11:30.142Z,99197.48
2023-03-16T03:13:57.344Z,99193.03
2023-03-16T03:16:26.472Z,99194.39
2023-03-16T03:18:55.232Z,99188.02
2023-03-16T03:21:24.630Z,99188.66
2023-03-16T03:23:52.175Z,99191.14
2023-03-16T03:26:20.172Z,99193.07
2023-03-16T03:28:48.653Z,99193.30
2023-03-16T03:31:21.781Z,99188.48
2023-03-16T03:33:49.326Z,99188.25
2023-03-16T03:36:16.702Z,99187.54
2023-03-16T03:38:44.938Z,99186.10
2023-03-16T03:41:13.815Z,99186.27
2023-03-16T03:43:42.302Z,99190.97
2023-03-16T03:46:19.348Z,99188.69
2023-03-16T03:48:47.348Z,99192.66
2023-03-16T03:51:14.607Z,99194.50
2023-03-16T03:54:02.441Z,99199.51
2023-03-16T03:57:02.255Z,99203.73
2023-03-16T03:59:30.125Z,99209.49
2023-03-16T04:01:57.531Z,99215.64
2023-03-16T04:04:28.325Z,99217.95
2023-03-16T04:06:55.863Z,99216.86
2023-03-16T04:09:23.976Z,99206.54
2023-03-16T04:11:57.634Z,99206.70
2023-03-16T04:14:26.149Z,99197.14
2023-03-16T04:16:55.040Z,99199.89
2023-03-16T04:19:23.344Z,99194.70
2023-03-16T04:21:51.377Z,99199.70
2023-03-16T04:24:22.547Z,99196.23
2023-03-16T04:26:50.488Z,99197.93
2023-03-16T04:29:20.819Z,99199.89
2023-03-16T04:31:48.347Z,99204.41
2023-03-16T04:34:16.324Z,99202.90
2023-03-16T04:36:43.896Z,99204.86
2023-03-16T04:39:12.260Z,99204.45
2023-03-16T04:41:40.471Z,99205.02
2023-03-16T04:44:14.857Z,99204.98
2023-03-16T04:46:42.644Z,99198.61
2023-03-16T04:49:14.294Z,99193.89
2023-03-16T04:51:45.881Z,99192.88
2023-03-16T04:54:15.657Z,99183.54
2023-03-16T04:56:44.322Z,99179.94
2023-03-16T04:59:41.992Z,99179.09
2023-03-16T05:02:20.424Z,99171.98
2023-03-16T05:04:48.785Z,99159.05
2023-03-16T05:07:16.336Z,99150.66
2023-03-16T05:09:48.818Z,99158.27
2023-03-16T05:12:15.994Z,99166.98
2023-03-16T05:14:48.141Z,99164.66
2023-03-16T05:17:35.768Z,99163.30
2023-03-16T05:20:08.344Z,99170.84
2023-03-16T05:22:37.536Z,99172.31
2023-03-16T05:25:18.611Z,99168.84
2023-03-16T05:27:50.626Z,99169.26
2023-03-16T05:30:24.240Z,99171.84
2023-03-16T05:32:52.346Z,99174.87
2023-03-16T05:35:24.298Z,99177.59
2023-03-16T05:37:53.213Z,99182.09
2023-03-16T05:40:23.375Z,99187.75
2023-03-16T05:43:17.169Z,99190.86
2023-03-16T05:45:48.804Z,99189.92
2023-03-16T05:48:18.160Z,99188.86
2023-03-16T05:50:48.592Z,99181.62
2023-03-16T05:53:17.689Z,99181.04
2023-03-16T05:55:44.757Z,99188.33
2023-03-16T05:58:14.579Z,99194.30
2023-03-16T06:00:42.314Z,99189.55
2023-03-16T06:03:18.832Z,99190.91
2023-03-16T06:05:46.374Z,99191.14
2023-03-16T06:08:15.605Z,99191.67
2023-03-16T06:10:49.535Z,99188.07
2023-03-16T06:13:19.973Z,99185.70
2023-03-16T06:15:47.989Z,99180.92
2023-03-16T06:18:15.825Z,99184.35
2023-03-16T06:20:43.898Z,99179.16
2023-03-16T06:23:11.961Z,99183.98
2023-03-16T06:25:41.143Z,99180.61
2023-03-16T06:28:09.378Z,99183.34
2023-03-16T06:30:40.456Z,99183.50
2023-03-16T06:33:09.332Z,99187.05
2023-03-16T06:35:36.666Z,99188.00
2023-03-16T06:38:16.141Z,99186.18
2023-03-16T06:41:04.109Z,99182.67
2023-03-16T06:43:33.935Z,99184.73
2023-03-16T06:46:02.112Z,99182.10
2023-03-16T06:48:30.382Z,99179.95
2023-03-16T06:50:58.590Z,99177.43
2023-03-16T06:53:27.759Z,99183.43
2023-03-16T06:55:55.773Z,99182.90
2023-03-16T06:58:23.750Z,99178.99
2023-03-16T07:07:03.346Z,99173.90
2023-03-16T07:09:35.875Z,99174.05
2023-03-16T07:12:04.761Z,99181.87
2023-03-16T07:14:39.793Z,99187.25
2023-03-16T07:17:11.548Z,99187.94
2023-03-16T07:19:40.374Z,99190.95
2023-03-16T07:28:20.473Z,99196.42
2023-03-16T11:25:48.963Z,99231.70
2023-03-16T11:28:18.200Z,99228.15
2023-03-16T11:31:15.690Z,99227.30
2023-03-16T11:33:43.043Z,99229.98
2023-03-16T11:36:13.228Z,99234.00
2023-03-16T11:39:19.622Z,99233.27
2023-03-16T11:42:10.153Z,99233.15
2023-03-16T11:44:42.295Z,99234.98
2023-03-16T11:47:12.724Z,99232.84
2023-03-16T11:50:05.752Z,99233.28
2023-03-16T11:53:10.398Z,99235.52
2023-03-16T11:55:41.368Z,99240.37
2023-03-16T11:58:11.995Z,99240.58
2023-03-16T12:00:53.066Z,99236.19
2023-03-16T12:03:55.268Z,99234.98
2023-03-16T12:06:30.926Z,99235.11
2023-03-16T12:09:17.489Z,99236.63
2023-03-16T12:12:19.041Z,99238.72
2023-03-16T12:14:53.453Z,99230.89
2023-03-16T12:17:29.604Z,99228.29
2023-03-16T12:20:05.752Z,99229.80
2023-03-16T12:23:16.574Z,99230.17
2023-03-16T12:25:46.374Z,99231.30
2023-03-16T12:28:23.857Z,99236.33
2023-03-16T12:31:03.729Z,99242.50
2023-03-16T12:33:50.269Z,99242.62
2023-03-16T12:36:43.235Z,99240.63
2023-03-16T12:39:30.856Z,99233.49
2023-03-16T12:42:25.150Z,99231.95
2023-03-16T12:44:57.627Z,99231.53
2023-03-16T12:47:31.455Z,99228.88
2023-03-16T12:50:15.718Z,99225.28
2023-03-16T12:52:45.941Z,99226.31
2023-03-16T12:55:48.753Z,99225.94
2023-03-16T12:58:34.696Z,99223.55
2023-03-16T13:01:14.087Z,99220.48
2023-03-16T13:03:43.475Z,99222.47
2023-03-16T13:06:37.585Z,99213.52
2023-03-16T13:09:06.274Z,99214.88
2023-03-16T13:11:50.282Z,99214.77
2023-03-16T13:14:44.116Z,99218.44
2023-03-16T13:17:19.385Z,99216.70
2023-03-16T13:20:31.115Z,99213.76
2023-03-16T13:23:18.481Z,99221.60
2023-03-16T13:25:59.345Z,99224.35
2023-03-16T13:28:33.242Z,99225.85
2023-03-16T13:31:01.141Z,99230.16
2023-03-16T13:33:36.158Z,99227.79
2023-03-16T13:36:06.976Z,99230.28
2023-03-16T13:38:35.366Z,99232.42
2023-03-16T13:41:04.653Z,99227.27
2023-03-16T13:43:36.096Z,99228.11
2023-03-16T13:46:14.847Z,99231.91
2023-03-16T13:48:43.923Z,99222.03
2023-03-16T13:51:18.337Z,99215.83
2023-03-16T13:53:46.049Z,99219.65
2023-03-16T13:56:16.243Z,99223.67
2023-03-16T13:58:46.107Z,99229.80
2023-03-16T14:01:28.144Z,99228.40
2023-03-16T14:04:14.085Z,99225.20
2023-03-16T14:06:56.257Z,99238.34
2023-03-16T14:09:27.438Z,99248.94
2023-03-16T14:11:55.748Z,99251.80
2023-03-16T14:14:37.282Z,99243.61
2023-03-16T14:17:12.855Z,99241.65
2023-03-16T14:19:50.324Z,99240.81
2023-03-16T14:22:24.079Z,99244.09
2023-03-16T14:25:00.747Z,99244.95
2023-03-16T14:27:42.245Z,99248.44
2023-03-16T14:30:28.103Z,99248.52
2023-03-16T14:33:06.886Z,99249.20
2023-03-16T14:35:44.815Z,99256.09
2023-03-16T14:38:27.397Z,99262.80
2023-03-16T14:40:56.858Z,99267.70
2023-03-16T14:43:35.941Z,99263.91
2023-03-16T14:46:07.540Z,99271.83
2023-03-16T14:48:35.691Z,99270.48
2023-03-16T14:51:03.755Z,99277.17
2023-03-16T14:53:31.935Z,99283.24
2023-03-16T14:55:59.748Z,99285.16
2023-03-16T14:58:29.809Z,99290.92
2023-03-16T15:00:58.090Z,99287.59
2023-03-16T15:03:33.682Z,99288.86
2023-03-16T15:06:03.247Z,99288.96
2023-03-16T15:08:33.928Z,99286.11
2023-03-16T15:11:05.579Z,99286.83
2023-03-16T15:13:53.898Z,99292.77
2023-03-16T15:16:23.441Z,99306.79
2023-03-16T15:18:52.259Z,99317.83
2023-03-16T15:21:24.372Z,99315.40
2023-03-16T15:23:51.919Z,99313.06
2023-03-16T15:26:27.789Z,99311.38
2023-03-16T15:28:56.997Z,99311.08
2023-03-16T15:31:48.128Z,99312.43
2023-03-16T15:34:16.830Z,99320.27
2023-03-16T15:36:48.110Z,99326.77
2023-03-16T15:39:33.024Z,99330.27
2023-03-16T15:42:15.680Z,99330.98
2023-03-16T15:44:43.403Z,99335.16
2023-03-16T15:47:11.718Z,99342.88
2023-03-16T15:49:48.423Z,99351.75
2023-03-16T15:52:24.861Z,99356.46
2023-03-16T15:54:52.670Z,99358.69
2023-03-16T15:57:23.133Z,99363.71
2023-03-16T15:59:55.659Z,99365.38
2023-03-16T16:02:28.759Z,99366.35
2023-03-16T16:04:56.398Z,99373.34
2023-03-16T16:07:24.895Z,99383.13
2023-03-16T16:09:53.045Z,99387.50
2023-03-16T16:12:20.542Z,99388.01
2023-03-16T16:14:48.998Z,99394.16
2023-03-16T16:17:24.750Z,99386.05
2023-03-16T16:19:54.593Z,99385.20
2023-03-16T16:22:23.562Z,99385.90
2023-03-16T16:24:51.017Z,99389.70
2023-03-16T16:27:18.617Z,99395.64
2023-03-16T16:29:48.976Z,99396.70
2023-03-16T16:32:24.090Z,99389.35
2023-03-16T16:35:03.900Z,99387.98
2023-03-16T16:37:32.586Z,99382.11
2023-03-16T16:40:01.048Z,99393.51
2023-03-16T16:42:29.000Z,99397.43
2023-03-16T16:44:56.559Z,99395.16
2023-03-16T16:47:24.518Z,99394.48
2023-03-16T16:49:54.011Z,99394.90
2023-03-16T16:52:24.774Z,99394.45
2023-03-16T16:54:52.705Z,99393.95
2023-03-16T16:57:21.296Z,99395.42
2023-03-16T16:59:51.218Z,99401.95
2023-03-16T17:02:28.125Z,99406.55
2023-03-16T17:04:57.215Z,99413.17
2023-03-16T17:07:24.627Z,99416.92
2023-03-16T17:09:57.468Z,99417.88
2023-03-16T17:12:25.009Z,99416.66
2023-03-16T17:14:53.656Z,99413.12
2023-03-16T17:17:23.079Z,99406.57
2023-03-16T17:19:52.578Z,99405.73
2023-03-16T17:22:28.787Z,99400.69
2023-03-16T17:24:57.158Z,99397.52
2023-03-16T17:27:27.541Z,99403.50
2023-03-16T17:29:54.588Z,99403.66
2023-03-16T17:32:23.316Z,99405.12
2023-03-16T17:34:50.979Z,99401.95
2023-03-16T17:37:22.687Z,99403.38
2023-03-16T17:39:54.213Z,99401.20
2023-03-16T17:42:23.799Z,99397.77
2023-03-16T17:44:55.080Z,99407.21
2023-03-16T17:47:26.953Z,99398.56
2023-03-16T17:49:56.294Z,99396.35
2023-03-16T17:52:25.971Z,99396.98
2023-03-16T17:54:53.546Z,99397.79
2023-03-16T17:57:31.260Z,99401.15
2023-03-16T17:59:59.578Z,99401.33
2023-03-16T18:02:59.789Z,99396.06
2023-03-16T18:05:32.214Z,99403.51
2023-03-16T18:08:07.491Z,99397.09
2023-03-16T18:10:46.494Z,99394.99
2023-03-16T18:13:19.406Z,99390.69
2023-03-16T18:15:48.598Z,99387.03
2023-03-16T18:18:17.551Z,99388.45
2023-03-16T18:20:46.215Z,99389.31
2023-03-16T18:23:17.439Z,99390.44
2023-03-16T18:25:45.813Z,99392.56
2023-03-16T18:28:14.751Z,99383.13
2023-03-16T18:30:45.152Z,99379.20
2023-03-16T18:33:33.845Z,99375.98
2023-03-16T18:36:22.281Z,99379.08
2023-03-16T18:38:56.577Z,99379.57
2023-03-16T18:41:27.725Z,99382.29
2023-03-16T18:43:57.094Z,99380.42
2023-03-16T18:46:29.944Z,99386.90
2023-03-16T18:49:02.233Z,99395.54
2023-03-16T18:51:53.943Z,99397.95
2023-03-16T18:54:27.345Z,99406.86
2023-03-16T18:56:54.613Z,99410.40
2023-03-16T18:59:21.781Z,99407.60
2023-03-16T19:02:05.341Z,99396.75
2023-03-16T19:04:35.256Z,99402.39
2023-03-16T19:07:02.532Z,99414.01
2023-03-16T19:09:31.981Z,99428.09
2023-03-16T19:12:00.000Z,99435.88
2023-03-16T19:14:29.056Z,99433.46
2023-03-16T19:16:58.045Z,99430.93
2023-03-16T19:19:26.039Z,99427.39
2023-03-16T19:22:05.556Z,99428.02
2023-03-16T19:24:45.967Z,99437.52
2023-03-16T19:27:22.965Z,99440.98
2023-03-16T19:29:53.221Z,99433.67
2023-03-16T19:32:21.000Z,99435.00
2023-03-16T19:34:52.464Z,99442.02
2023-03-16T19:37:25.862Z,99442.34
2023-03-16T19:40:00.439Z,99441.83
2023-03-16T19:42:30.023Z,99440.73
2023-03-16T19:44:57.435Z,99450.95
2023-03-16T19:47:33.903Z,99448.53
2023-03-16T19:50:02.065Z,99449.89
2023-03-16T19:52:31.480Z,99449.89
2023-03-16T19:54:59.177Z,99454.89
2023-03-16T19:57:26.809Z,99451.08
2023-03-16T19:59:57.701Z,99446.14
2023-03-16T20:02:41.965Z,99443.10
2023-03-16T20:05:18.709Z,99442.30
2023-03-16T20:07:53.485Z,99444.45
2023-03-16T20:10:25.906Z,99448.02
2023-03-16T20:12:58.187Z,99450.24
2023-03-16T20:15:34.975Z,99452.83
2023-03-16T20:18:04.600Z,99453.39
2023-03-16T20:20:36.427Z,99458.92
2023-03-16T20:23:10.979Z,99460.88
2023-03-16T20:25:38.666Z,99455.95
2023-03-16T20:28:07.179Z,99449.83
2023-03-16T20:30:34.678Z,99444.23
2023-03-16T20:33:03.855Z,99445.08
2023-03-16T20:35:33.643Z,99450.13
2023-03-16T20:38:01.326Z,99450.80
2023-03-16T20:40:28.556Z,99446.40
2023-03-16T20:42:56.559Z,99451.60
2023-03-16T20:45:27.339Z,99451.27
2023-03-16T20:47:54.964Z,99454.27
2023-03-16T20:50:24.359Z,99452.75
2023-03-16T20:52:51.996Z,99453.13
2023-03-16T20:55:20.277Z,99457.45
2023-03-16T20:57:49.922Z,99463.13
2023-03-16T21:00:31.135Z,99469.02
2023-03-16T21:02:58.895Z,99473.29
2023-03-16T21:05:26.505Z,99466.45
2023-03-16T21:07:53.725Z,99468.84
2023-03-16T21:10:24.044Z,99463.81
2023-03-16T21:12:57.264Z,99461.77
2023-03-16T21:15:26.771Z,99458.95
2023-03-16T21:17:59.600Z,99454.34
2023-03-16T21:20:28.769Z,99454.41
2023-03-16T21:22:56.368Z,99456.02
2023-03-16T21:25:31.301Z,99455.59
2023-03-16T21:28:01.559Z,99445.05
2023-03-16T21:30:37.695Z,99444.03
2023-03-16T21:33:12.752Z,99446.00
2023-03-16T21:35:40.010Z,99449.64
2023-03-16T21:38:13.194Z,99449.08
2023-03-16T21:40:40.543Z,99447.45
2023-03-16T21:43:11.367Z,99448.35
2023-03-16T21:45:39.562Z,99449.83
2023-03-16T21:54:45.805Z,99454.12
2023-03-16T21:57:13.519Z,99460.67
2023-03-16T21:59:40.670Z,99464.14
2023-03-16T22:02:21.925Z,99468.59
2023-03-16T22:04:49.437Z,99472.29
2023-03-16T22:07:16.095Z,99476.82
2023-03-16T22:09:42.987Z,99486.84
2023-03-16T22:12:12.903Z,99487.56
2023-03-16T22:14:40.135Z,99491.26
2023-03-16T22:17:16.119Z,99490.64
2023-03-16T22:19:43.012Z,99491.52
2023-03-16T22:22:13.281Z,99486.31
2023-03-16T22:24:40.848Z,99482.95
2023-03-16T22:27:20.025Z,99485.52
2023-03-16T22:29:46.724Z,99486.79
2023-03-16T22:32:18.575Z,99478.68
2023-03-16T22:34:47.776Z,99473.59
2023-03-16T22:37:22.393Z,99477.23
2023-03-16T22:39:49.281Z,99479.58
2023-03-16T22:42:37.618Z,99478.14
2023-03-16T22:45:25.656Z,99479.05
2023-03-16T22:47:56.783Z,99473.55
2023-03-16T22:50:25.196Z,99478.59
2023-03-16T22:52:53.734Z,99477.13
2023-03-16T22:55:22.934Z,99476.93
2023-03-16T22:57:50.391Z,99473.95
2023-03-16T23:00:20.917Z,99474.31
2023-03-16T23:02:48.682Z,99474.77
2023-03-16T23:05:23.919Z,99468.73
2023-03-16T23:07:51.381Z,99461.80
2023-03-16T23:10:19.045Z,99454.99
2023-03-16T23:12:50.205Z,99448.91
2023-03-16T23:15:19.183Z,99445.16
2023-03-16T23:17:45.921Z,99443.33
2023-03-16T23:20:20.261Z,99440.27
2023-03-16T23:22:49.167Z,99444.77
2023-03-16T23:25:21.825Z,99443.35
2023-03-16T23:27:51.409Z,99440.36
2023-03-16T23:30:20.212Z,99442.74
2023-03-16T23:32:51.713Z,99435.81
2023-03-16T23:35:22.417Z,99433.69
2023-03-16T23:37:51.921Z,99432.57
2023-03-16T23:43:20.362Z,99423.50
2023-03-16T23:45:47.663Z,99419.48
2023-03-16T23:48:18.922Z,99428.27
2023-03-16T23:50:48.938Z,99434.16
2023-03-16T23:53:17.081Z,99434.86
2023-03-16T23:55:43.899Z,99437.38
2023-03-16T23:58:10.905Z,99442.68
